Time;durP1;ratioP1;P1;durP2;ratioP2;P2;SDS_P1;SDS_P2;PMS_P1;PMS_P2;Temp;Humidity;BMP_temperature;BMP_pressure;BME280_temperature;BME280_humidity;BME280_pressure;Samples;Min_cycle;Max_cycle;Signal;HPM_P1;HPM_P2
2022/06/10 00:00:31;;;;;;;5.50;4.50;;;;;;;14.98;85.49;100938.19;5056813;28;20067;-68
2022/06/10 00:02:58;;;;;;;5.43;4.05;;;;;;;15.01;85.36;100934.50;5048535;28;20128;-68
2022/06/10 00:05:28;;;;;;;4.55;3.92;;;;;;;14.93;85.67;100915.44;5035720;28;20053;-67
2022/06/10 00:07:55;;;;;;;6.00;4.03;;;;;;;15.03;85.74;100938.81;5043213;28;20410;-67
2022/06/10 00:10:24;;;;;;;6.03;4.25;;;;;;;15.02;85.65;100937.09;5049336;28;20053;-67
2022/06/10 00:12:51;;;;;;;6.55;4.13;;;;;;;14.97;85.40;100933.81;5047830;28;20053;-68
2022/06/10 00:15:18;;;;;;;6.88;4.20;;;;;;;14.91;85.72;100941.31;5043609;28;20062;-67
2022/06/10 00:17:45;;;;;;;7.38;4.72;;;;;;;14.80;86.09;100939.22;5046372;28;20049;-66
2022/06/10 00:20:14;;;;;;;6.43;4.35;;;;;;;14.71;86.93;100942.41;5042999;28;20390;-67
2022/06/10 00:22:41;;;;;;;5.97;4.75;;;;;;;14.66;87.69;100948.00;5050496;28;20049;-67
2022/06/10 00:25:08;;;;;;;7.65;4.78;;;;;;;14.69;88.23;100957.63;5047737;28;20495;-67
2022/06/10 00:27:35;;;;;;;4.82;4.43;;;;;;;14.74;88.10;100960.91;5043728;28;20106;-67
2022/06/10 00:30:03;;;;;;;6.82;4.28;;;;;;;14.77;87.86;100966.09;5046439;28;20132;-67
2022/06/10 00:32:29;;;;;;;5.45;3.75;;;;;;;14.68;87.43;100961.25;5045147;28;20621;-67
2022/06/10 00:34:56;;;;;;;8.32;4.75;;;;;;;14.63;87.20;100961.53;5049100;28;20135;-66
2022/06/10 00:37:22;;;;;;;7.93;4.70;;;;;;;14.53;87.63;100962.94;5055777;28;20094;-68
2022/06/10 00:39:50;;;;;;;6.10;4.45;;;;;;;14.47;88.89;100963.28;5046247;28;20504;-66
2022/06/10 00:42:17;;;;;;;7.38;4.30;;;;;;;14.47;89.17;100978.44;5051065;28;20057;-68
2022/06/10 00:44:48;;;;;;;9.30;5.45;;;;;;;14.34;89.15;100949.72;5057870;28;20556;-67
2022/06/10 00:47:38;;;;;;;5.72;4.82;;;;;;;14.43;88.91;100974.19;5042634;28;20114;-67
2022/06/10 00:50:23;;;;;;;9.53;4.70;;;;;;;14.20;89.17;100952.25;5051463;28;20068;-67
2022/06/10 00:53:05;;;;;;;5.68;5.00;;;;;;;14.27;89.97;100987.44;5055442;28;21027;-67
2022/06/10 00:55:36;;;;;;;6.20;4.88;;;;;;;14.20;90.44;100973.56;5050692;28;20094;-67
2022/06/10 00:58:11;;;;;;;9.10;6.10;;;;;;;14.17;90.71;100981.72;5054418;28;20049;-67
2022/06/10 01:00:38;;;;;;;8.38;5.78;;;;;;;14.12;91.39;100983.78;5052644;28;20057;-67
2022/06/10 01:03:05;;;;;;;10.45;6.05;;;;;;;13.98;92.01;100968.53;5044892;28;20444;-67
2022/06/10 01:05:32;;;;;;;8.70;6.13;;;;;;;14.02;92.22;100985.19;5057418;28;20134;-66
2022/06/10 01:08:03;;;;;;;7.57;5.90;;;;;;;13.87;92.90;100957.53;5049849;28;20048;-67
2022/06/10 01:10:40;;;;;;;7.28;5.78;;;;;;;13.95;93.08;100976.66;5049575;28;20076;-67
2022/06/10 01:13:42;;;;;;;6.82;5.28;;;;;;;13.99;93.19;100977.38;5049367;28;20573;-66
2022/06/10 01:16:25;;;;;;;7.53;5.88;;;;;;;13.98;93.18;100975.66;5026741;28;20131;-68
2022/06/10 01:19:02;;;;;;;7.00;5.28;;;;;;;13.94;93.18;100980.25;5046903;28;20045;-66
2022/06/10 01:21:39;;;;;;;6.72;5.50;;;;;;;13.95;93.51;100967.81;5051658;28;20378;-67
2022/06/10 01:24:16;;;;;;;7.75;5.25;;;;;;;14.01;93.42;100975.47;5055303;28;20056;-68
2022/06/10 01:30:15;;;;;;;8.50;5.88;;;;;;;13.87;93.73;100972.66;5048324;28;20049;-67
2022/06/10 01:32:48;;;;;;;9.10;6.40;;;;;;;13.80;93.89;100976.59;5052264;28;20110;-67
2022/06/10 01:35:49;;;;;;;7.10;5.70;;;;;;;13.76;94.58;100975.00;5041045;28;20132;-67
2022/06/10 01:38:21;;;;;;;7.35;5.10;;;;;;;13.76;95.34;100980.34;5045260;28;20048;-67
2022/06/10 01:41:02;;;;;;;11.30;5.85;;;;;;;13.76;95.26;100981.19;5055391;28;20068;-67
2022/06/10 01:43:41;;;;;;;8.82;5.93;;;;;;;13.75;94.77;100973.28;5048182;28;20064;-67
2022/06/10 01:46:26;;;;;;;6.05;5.38;;;;;;;13.73;94.98;100977.81;5046710;28;20056;-66
2022/06/10 01:49:21;;;;;;;9.25;5.68;;;;;;;13.65;95.07;100968.44;5048146;28;20247;-67
2022/06/10 01:51:53;;;;;;;7.47;5.50;;;;;;;13.60;95.36;100970.47;5055075;28;20044;-69
2022/06/10 01:54:45;;;;;;;8.80;6.22;;;;;;;13.53;96.22;100969.06;5048052;28;20044;-67
2022/06/10 01:57:23;;;;;;;7.15;6.20;;;;;;;13.54;96.22;100976.09;5046956;28;20056;-67
2022/06/10 02:00:00;;;;;;;7.72;6.38;;;;;;;13.39;96.77;100958.22;5055913;28;20102;-67
2022/06/10 02:02:33;;;;;;;7.15;6.03;;;;;;;13.48;96.40;100972.88;5049207;28;20103;-66
2022/06/10 02:05:06;;;;;;;7.53;5.97;;;;;;;13.45;96.77;100970.38;5044543;28;20509;-67
2022/06/10 02:07:39;;;;;;;10.13;6.50;;;;;;;13.47;97.04;100974.69;5047943;28;20080;-67
2022/06/10 02:10:33;;;;;;;7.07;6.30;;;;;;;13.41;96.71;100959.00;5045779;28;20393;-67
2022/06/10 02:13:06;;;;;;;7.18;6.28;;;;;;;13.41;96.84;100974.97;5046920;28;20134;-67
2022/06/10 02:15:38;;;;;;;8.05;5.93;;;;;;;13.35;96.96;100975.28;5048041;28;20048;-67
2022/06/10 02:18:11;;;;;;;6.85;5.95;;;;;;;13.27;96.47;100964.16;5048111;28;20053;-66
2022/06/10 02:20:45;;;;;;;7.28;6.30;;;;;;;13.23;96.75;100979.41;5050653;28;20053;-67
2022/06/10 02:23:15;;;;;;;7.05;5.63;;;;;;;13.21;96.52;100980.44;5054449;28;20052;-67
2022/06/10 02:25:46;;;;;;;7.43;6.18;;;;;;;12.98;96.17;100965.53;5047723;28;20144;-67
2022/06/10 02:28:18;;;;;;;7.75;6.07;;;;;;;13.03;96.59;100990.13;5051254;28;20068;-70
2022/06/10 02:30:56;;;;;;;9.88;6.35;;;;;;;12.97;96.72;100991.25;5050815;28;20124;-67
2022/06/10 02:33:23;;;;;;;7.88;6.15;;;;;;;12.99;97.27;100986.75;5049349;28;20111;-67
2022/06/10 02:35:56;;;;;;;6.78;6.07;;;;;;;12.99;96.73;100994.72;5050132;28;20408;-67
2022/06/10 02:38:45;;;;;;;10.07;6.68;;;;;;;12.90;96.84;100996.94;5044523;28;20108;-67
2022/06/10 02:41:21;;;;;;;6.88;6.25;;;;;;;12.80;97.35;101000.94;5045278;28;20045;-67
2022/06/10 02:44:26;;;;;;;8.38;6.13;;;;;;;12.69;98.06;100996.16;5047919;28;20068;-67
2022/06/10 02:47:05;;;;;;;8.52;6.00;;;;;;;12.61;98.47;100991.16;4999604;28;20129;-67
2022/06/10 02:49:31;;;;;;;7.57;6.65;;;;;;;12.55;99.00;100996.78;5002928;28;20046;-67
2022/06/10 02:51:59;;;;;;;10.48;8.80;;;;;;;12.48;99.74;100997.13;5024835;28;20222;-67
2022/06/10 02:54:32;;;;;;;10.55;8.00;;;;;;;12.36;100.00;100976.44;5048902;28;20183;-68
2022/06/10 02:57:12;;;;;;;10.48;7.68;;;;;;;12.48;100.00;101002.44;5053243;28;20472;-67
2022/06/10 03:03:15;;;;;;;9.45;7.18;;;;;;;12.41;100.00;100983.25;5043854;28;20049;-67
2022/06/10 03:06:17;;;;;;;9.80;6.57;;;;;;;12.52;100.00;101010.19;5020189;28;20106;-67
2022/06/10 03:08:51;;;;;;;7.75;6.72;;;;;;;12.52;100.00;101014.66;5019438;28;20068;-67
2022/06/10 03:11:37;;;;;;;12.05;7.43;;;;;;;12.50;100.00;101017.38;5045268;28;20044;-67
2022/06/10 03:14:16;;;;;;;10.18;7.47;;;;;;;12.50;100.00;101022.69;5048801;28;20087;-67
2022/06/10 03:16:52;;;;;;;9.70;8.05;;;;;;;12.49;100.00;101030.72;5045524;28;20057;-66
2022/06/10 03:19:41;;;;;;;9.95;7.40;;;;;;;12.43;100.00;101028.34;5032272;28;20064;-67
2022/06/10 03:22:50;;;;;;;10.52;7.88;;;;;;;12.46;100.00;101038.81;5039030;28;20137;-67
2022/06/10 03:25:36;;;;;;;10.27;7.65;;;;;;;12.48;100.00;101040.47;5038575;28;20374;-67
2022/06/10 03:28:22;;;;;;;10.02;7.35;;;;;;;12.51;100.00;101047.47;5040248;28;20072;-67
2022/06/10 03:30:54;;;;;;;8.15;6.90;;;;;;;12.48;100.00;101042.28;5047017;28;20049;-66
2022/06/10 03:33:34;;;;;;;8.20;6.57;;;;;;;12.48;99.80;101048.44;5044092;28;20075;-68
2022/06/10 03:36:06;;;;;;;7.63;6.82;;;;;;;12.43;99.20;101045.16;5043679;28;20057;-66
2022/06/10 03:38:40;;;;;;;8.20;6.60;;;;;;;12.49;98.90;101059.94;5049868;28;20088;-67
2022/06/10 03:41:08;;;;;;;7.82;6.53;;;;;;;12.48;98.58;101052.91;5043509;28;20079;-67
2022/06/10 03:43:37;;;;;;;7.15;6.35;;;;;;;12.42;98.11;101064.69;5054621;28;20675;-67
2022/06/10 03:46:10;;;;;;;8.68;6.50;;;;;;;12.41;98.20;101064.75;5048923;28;20045;-68
2022/06/10 03:48:41;;;;;;;8.40;6.63;;;;;;;12.44;98.04;101067.25;5045214;28;21003;-67
2022/06/10 03:51:11;;;;;;;8.60;6.57;;;;;;;12.49;97.83;101065.25;5045710;28;20634;-68
2022/06/10 03:53:38;;;;;;;10.05;7.25;;;;;;;12.44;97.22;101069.91;5045340;28;20079;-67
2022/06/10 03:56:08;;;;;;;8.27;7.33;;;;;;;12.39;98.13;101066.59;5038985;28;20045;-67
2022/06/10 03:58:35;;;;;;;8.30;7.20;;;;;;;12.32;98.19;101067.78;5053217;28;20052;-67
2022/06/10 04:01:01;;;;;;;7.90;7.10;;;;;;;12.27;98.60;101078.63;5045709;28;20052;-67
2022/06/10 04:03:28;;;;;;;9.45;8.10;;;;;;;12.20;99.19;101075.34;5043057;28;20102;-66
2022/06/10 04:05:56;;;;;;;8.77;7.35;;;;;;;12.16;99.64;101062.28;5045097;28;20053;-68
2022/06/10 04:08:43;;;;;;;8.48;7.43;;;;;;;12.39;99.44;101088.72;5052097;28;20040;-66
2022/06/10 04:11:10;;;;;;;8.73;7.28;;;;;;;12.32;99.07;101078.41;5044234;28;20079;-67
2022/06/10 04:13:37;;;;;;;9.80;7.97;;;;;;;12.39;99.37;101098.47;5051836;28;20074;-67
2022/06/10 04:16:04;;;;;;;10.50;8.60;;;;;;;12.38;99.76;101102.91;5051363;28;20041;-67
2022/06/10 04:18:31;;;;;;;11.10;8.35;;;;;;;12.41;100.00;101101.94;5051270;28;20526;-67
2022/06/10 04:20:58;;;;;;;9.55;8.60;;;;;;;12.46;100.00;101100.78;5048856;28;20095;-69
2022/06/10 04:23:24;;;;;;;10.48;8.70;;;;;;;12.55;100.00;101094.22;5042852;28;20060;-68
2022/06/10 04:25:51;;;;;;;11.32;8.93;;;;;;;12.61;100.00;101088.63;5052144;28;20569;-67
2022/06/10 04:28:18;;;;;;;12.90;9.05;;;;;;;12.73;100.00;101089.88;5029839;28;20531;-67
2022/06/10 04:30:47;;;;;;;11.88;9.20;;;;;;;12.80;100.00;101094.84;5058212;28;20076;-67
2022/06/10 04:33:14;;;;;;;11.07;9.52;;;;;;;12.85;99.71;101095.50;5052109;28;20641;-67
2022/06/10 04:35:43;;;;;;;11.07;9.30;;;;;;;12.92;99.61;101096.94;5043058;28;20040;-68
2022/06/10 04:38:16;;;;;;;12.50;10.50;;;;;;;12.90;99.22;101100.63;5051387;28;20061;-68
2022/06/10 04:40:43;;;;;;;11.85;9.68;;;;;;;12.99;99.17;101114.34;5050692;28;20049;-67
2022/06/10 04:43:10;;;;;;;12.25;10.13;;;;;;;13.05;99.34;101120.34;5046202;28;20504;-67
2022/06/10 04:45:41;;;;;;;13.18;9.63;;;;;;;13.08;99.09;101117.50;5052822;28;20048;-68
2022/06/10 04:48:11;;;;;;;15.07;10.43;;;;;;;13.03;99.45;101109.75;5048933;28;20461;-68
2022/06/10 04:50:38;;;;;;;12.43;10.20;;;;;;;13.19;99.42;101125.91;5047310;28;20121;-69
2022/06/10 04:53:05;;;;;;;11.73;10.52;;;;;;;13.32;99.18;101127.94;5050608;28;20045;-66
2022/06/10 04:55:33;;;;;;;11.60;10.30;;;;;;;13.41;98.24;101118.63;5028839;28;20536;-66
2022/06/10 04:57:59;;;;;;;12.63;10.00;;;;;;;13.36;98.12;101087.88;5041627;28;20041;-67
2022/06/10 05:00:30;;;;;;;10.90;9.75;;;;;;;13.63;97.03;101119.34;5047775;28;20107;-67
2022/06/10 05:02:57;;;;;;;;;;;;;;;13.73;95.95;101127.75;5047287;28;20064;-68
2022/06/10 05:05:24;;;;;;;10.85;9.48;;;;;;;13.80;95.69;101130.97;5045811;28;20297;-67
2022/06/10 05:07:52;;;;;;;12.10;10.68;;;;;;;13.87;95.07;101125.28;5047586;28;20056;-67
2022/06/10 05:10:19;;;;;;;15.73;11.20;;;;;;;13.87;94.15;101125.28;5046353;28;20493;-68
2022/06/10 05:12:46;;;;;;;17.80;11.73;;;;;;;13.83;94.30;101131.69;5049845;28;20135;-68
2022/06/10 05:15:14;;;;;;;12.73;10.90;;;;;;;13.80;94.62;101123.00;5041478;28;20445;-66
2022/06/10 05:17:42;;;;;;;12.90;10.52;;;;;;;13.87;94.65;101130.59;5047143;28;20515;-67
2022/06/10 05:20:15;;;;;;;13.25;9.95;;;;;;;13.92;94.33;101135.69;5051199;28;20087;-67
2022/06/10 05:22:42;;;;;;;12.52;10.30;;;;;;;13.93;93.47;101140.97;5046127;28;20048;-68
2022/06/10 05:25:09;;;;;;;13.95;10.00;;;;;;;13.97;93.42;101139.00;5043226;28;20057;-67
2022/06/10 05:27:36;;;;;;;13.45;9.93;;;;;;;14.00;93.01;101136.22;5049421;28;20107;-67
2022/06/10 05:30:06;;;;;;;13.30;9.63;;;;;;;14.00;92.33;101139.72;5046772;28;20110;-67
2022/06/10 05:32:32;;;;;;;14.05;9.88;;;;;;;14.05;91.79;101139.47;5049890;28;20045;-67
2022/06/10 05:34:59;;;;;;;14.32;10.20;;;;;;;14.03;91.79;101133.38;5045300;28;20122;-69
2022/06/10 05:37:26;;;;;;;35.70;15.45;;;;;;;14.11;91.28;101138.31;5044882;28;20064;-66
2022/06/10 05:39:54;;;;;;;14.77;10.05;;;;;;;14.22;91.49;101136.84;5048974;28;20110;-68
2022/06/10 05:42:21;;;;;;;14.02;9.82;;;;;;;14.31;90.87;101139.06;5048317;28;20049;-67
2022/06/10 05:44:50;;;;;;;11.98;9.45;;;;;;;14.47;90.59;101144.50;5043609;28;20088;-68
2022/06/10 05:47:29;;;;;;;12.23;9.05;;;;;;;14.59;89.78;101145.66;5049159;28;20057;-66
2022/06/10 05:49:58;;;;;;;13.10;10.13;;;;;;;14.60;89.13;101126.06;5045494;28;20689;-66
2022/06/10 05:52:28;;;;;;;12.57;9.32;;;;;;;14.82;88.36;101155.97;5044939;28;20088;-66
2022/06/10 05:54:58;;;;;;;9.50;8.20;;;;;;;14.92;87.23;101154.56;5050107;28;20132;-67
2022/06/10 05:57:25;;;;;;;7.85;7.05;;;;;;;14.94;86.29;101125.16;5048206;28;20476;-67
2022/06/10 05:59:52;;;;;;;10.18;7.10;;;;;;;15.27;82.37;101152.66;5054680;28;20057;-66
2022/06/10 06:02:21;;;;;;;12.65;6.80;;;;;;;15.33;81.43;101138.13;5043329;28;20072;-67
2022/06/10 06:04:49;;;;;;;12.75;6.65;;;;;;;15.58;80.54;101149.22;5046640;28;20076;-68
2022/06/10 06:07:25;;;;;;;10.98;7.43;;;;;;;15.56;78.98;101147.59;5050947;28;20055;-68
2022/06/10 06:09:53;;;;;;;13.52;8.00;;;;;;;15.47;79.69;101142.72;5047465;28;20049;-66
2022/06/10 06:12:21;;;;;;;12.77;7.85;;;;;;;15.51;80.13;101157.63;5044480;28;20412;-68
2022/06/10 06:14:48;;;;;;;8.43;7.63;;;;;;;15.56;80.45;101147.59;5048449;28;20044;-68
2022/06/10 06:17:20;;;;;;;7.47;6.43;;;;;;;15.83;81.09;101153.19;5048952;28;20152;-67
2022/06/10 06:19:47;;;;;;;10.27;6.50;;;;;;;16.38;78.17;101148.16;5050667;28;20044;-68
2022/06/10 06:22:15;;;;;;;10.10;6.40;;;;;;;16.94;74.58;101141.25;5047436;28;20118;-68
2022/06/10 06:24:42;;;;;;;8.75;6.07;;;;;;;17.63;71.57;101152.00;5039643;28;20040;-69
2022/06/10 06:27:13;;;;;;;9.90;5.70;;;;;;;18.18;67.73;101143.06;5042996;28;20136;-67
2022/06/10 06:29:41;;;;;;;6.65;5.30;;;;;;;18.80;65.43;101152.25;5044129;28;20431;-67
2022/06/10 06:32:08;;;;;;;9.13;5.25;;;;;;;19.19;62.67;101155.78;5042903;28;20172;-67
2022/06/10 06:34:35;;;;;;;11.35;5.65;;;;;;;19.20;62.23;101133.34;5050134;28;20130;-67
2022/06/10 06:37:02;;;;;;;7.32;6.22;;;;;;;19.32;61.56;101158.47;5046896;28;20045;-66
2022/06/10 06:39:28;;;;;;;10.02;6.00;;;;;;;18.96;63.98;101154.72;5049584;28;20107;-67
2022/06/10 06:41:56;;;;;;;6.88;5.68;;;;;;;19.16;63.13;101154.19;5044367;28;20049;-67
2022/06/10 06:44:23;;;;;;;6.65;5.25;;;;;;;19.49;62.78;101133.94;5040592;28;20202;-67
2022/06/10 06:46:50;;;;;;;6.07;4.93;;;;;;;20.03;60.65;101155.06;5050503;28;20057;-67
2022/06/10 06:49:25;;;;;;;8.52;7.13;;;;;;;19.74;59.38;101160.75;5042597;28;20049;-68
2022/06/10 06:51:54;;;;;;;12.73;6.65;;;;;;;19.10;62.24;101157.28;5041756;28;20049;-67
2022/06/10 06:54:21;;;;;;;8.65;5.90;;;;;;;19.37;63.22;101162.50;5052651;28;20049;-68
2022/06/10 06:56:48;;;;;;;8.02;5.55;;;;;;;19.77;60.54;101112.16;5043255;28;20103;-67
2022/06/10 06:59:15;;;;;;;8.35;5.65;;;;;;;20.69;57.21;101154.50;5044884;28;20069;-68
2022/06/10 07:01:42;;;;;;;12.63;6.13;;;;;;;21.22;55.44;101158.44;5045652;28;20102;-67
2022/06/10 07:04:08;;;;;;;13.93;6.28;;;;;;;21.36;53.02;101130.38;5038743;28;20045;-69
2022/06/10 07:06:43;;;;;;;9.40;5.88;;;;;;;21.75;52.11;101157.75;5048799;28;20064;-67
2022/06/10 07:09:10;;;;;;;10.88;5.57;;;;;;;21.90;51.97;101157.38;5044452;28;20060;-67
2022/06/10 07:11:38;;;;;;;6.85;4.90;;;;;;;21.79;52.85;101162.78;5028280;28;20044;-67
2022/06/10 07:14:10;;;;;;;10.90;5.00;;;;;;;21.44;53.28;101159.38;5040923;28;20041;-67
2022/06/10 07:16:37;;;;;;;7.18;4.78;;;;;;;21.04;55.42;101159.84;5051085;28;20413;-68
2022/06/10 07:19:04;;;;;;;8.10;4.15;;;;;;;21.06;56.22;101163.28;5040155;28;20083;-68
2022/06/10 07:21:31;;;;;;;8.95;4.85;;;;;;;20.98;55.13;101161.19;5048479;28;20044;-67
2022/06/10 07:23:58;;;;;;;6.50;4.57;;;;;;;21.29;54.20;101166.88;5042026;28;20444;-68
2022/06/10 07:26:25;;;;;;;7.45;4.75;;;;;;;21.58;52.29;101148.34;5047652;28;20787;-68
2022/06/10 07:28:52;;;;;;;6.72;4.80;;;;;;;21.98;51.92;101168.41;5043460;28;20037;-68
2022/06/10 07:31:20;;;;;;;6.35;4.70;;;;;;;22.24;50.36;101177.03;5044921;28;20049;-67
2022/06/10 07:33:46;;;;;;;4.95;4.30;;;;;;;22.42;48.95;101177.34;5041296;28;20560;-66
2022/06/10 07:36:13;;;;;;;7.03;4.30;;;;;;;22.15;51.01;101168.88;5041665;28;20136;-67
2022/06/10 07:38:40;;;;;;;6.10;4.53;;;;;;;20.77;53.00;101152.09;5044442;28;20045;-67
2022/06/10 07:43:53;;;;;;;5.35;4.20;;;;;;;20.64;55.83;101173.69;5039904;28;20079;-67
2022/06/10 07:46:22;;;;;;;7.20;4.22;;;;;;;20.81;55.52;101158.94;5052644;28;20135;-67
2022/06/10 07:48:49;;;;;;;5.63;3.25;;;;;;;21.00;53.77;101161.06;5042974;28;20041;-67
2022/06/10 07:51:17;;;;;;;6.15;2.92;;;;;;;20.87;52.72;101160.31;5045141;28;20056;-67
2022/06/10 07:53:44;;;;;;;5.35;3.03;;;;;;;20.77;53.32;101146.72;5050683;28;20048;-69
2022/06/10 07:56:13;;;;;;;6.88;2.85;;;;;;;21.14;53.23;101150.06;5050620;28;20060;-67
2022/06/10 07:58:40;;;;;;;5.80;3.10;;;;;;;21.12;52.17;101156.53;5026696;28;20041;-68
2022/06/10 08:01:07;;;;;;;8.65;3.38;;;;;;;20.91;51.36;101159.09;5050480;28;20041;-68
2022/06/10 08:03:34;;;;;;;4.68;3.30;;;;;;;21.33;50.84;101153.03;5044226;28;20537;-66
2022/06/10 08:06:02;;;;;;;3.78;2.67;;;;;;;21.36;49.31;101130.38;5044526;28;20442;-67
2022/06/10 08:08:29;;;;;;;3.90;2.50;;;;;;;21.62;49.47;101148.00;5045291;28;20566;-67
2022/06/10 08:10:57;;;;;;;5.25;2.70;;;;;;;21.87;47.77;101127.97;5047696;28;20072;-66
2022/06/10 08:13:25;;;;;;;6.38;2.65;;;;;;;21.22;47.49;101126.09;5044383;28;20049;-66
2022/06/10 08:15:55;;;;;;;3.80;2.30;;;;;;;21.13;48.80;101153.72;5041049;28;20240;-69
2022/06/10 08:18:22;;;;;;;4.65;2.88;;;;;;;21.60;47.85;101141.84;5044329;28;20509;-66
2022/06/10 08:23:35;;;;;;;3.05;2.42;;;;;;;22.24;46.81;101151.91;5042740;28;20083;-69
2022/06/10 08:26:05;;;;;;;3.83;2.50;;;;;;;22.59;46.03;101155.19;5045776;28;20103;-67
2022/06/10 08:28:33;;;;;;;3.65;2.35;;;;;;;22.58;47.20;101155.31;5050736;28;20530;-67
2022/06/10 08:31:00;;;;;;;3.50;2.03;;;;;;;22.84;44.73;101148.56;5043252;28;20076;-67
2022/06/10 08:33:28;;;;;;;2.80;1.80;;;;;;;23.29;43.19;101159.91;5031116;28;20049;-68
2022/06/10 08:35:55;;;;;;;4.03;2.10;;;;;;;23.15;43.62;101152.13;5055050;28;20057;-67
2022/06/10 08:38:21;;;;;;;7.97;2.13;;;;;;;22.85;43.64;101103.50;5043457;28;20553;-68
2022/06/10 08:40:58;;;;;;;4.03;2.20;;;;;;;23.25;44.89;101149.50;5055785;28;20429;-67
2022/06/10 08:44:10;;;;;;;5.90;2.10;;;;;;;23.32;44.24;101129.03;5048729;28;20139;-67
2022/06/10 08:46:58;;;;;;;5.18;2.28;;;;;;;23.31;43.91;101149.78;4981937;28;20054;-69
2022/06/10 08:49:59;;;;;;;4.75;1.80;;;;;;;23.24;43.96;101155.91;5042253;28;20393;-68
2022/06/10 08:52:39;;;;;;;2.72;1.70;;;;;;;23.33;44.00;101142.41;5046597;28;20056;-68
2022/06/10 08:55:32;;;;;;;4.95;1.70;;;;;;;23.44;43.01;101141.47;5043246;28;20459;-69
2022/06/10 08:58:04;;;;;;;5.07;2.20;;;;;;;23.31;43.98;101128.19;5027625;28;20170;-68
2022/06/10 09:00:40;;;;;;;4.30;1.90;;;;;;;23.39;44.28;101143.72;5049357;28;20582;-67
2022/06/10 09:03:15;;;;;;;4.30;2.05;;;;;;;22.82;44.63;101142.47;5033598;28;20691;-68
2022/06/10 09:05:49;;;;;;;4.68;2.30;;;;;;;22.11;47.04;101153.91;5047312;28;20407;-67
2022/06/10 09:08:21;;;;;;;3.67;2.42;;;;;;;21.55;48.18;101143.25;5047551;28;20759;-68
2022/06/10 09:11:09;;;;;;;8.48;2.80;;;;;;;21.58;48.05;101154.59;5043961;28;20053;-70
2022/06/10 09:13:38;;;;;;;4.43;2.10;;;;;;;21.90;48.03;101149.28;5050475;28;20461;-67
2022/06/10 09:16:28;;;;;;;6.55;2.10;;;;;;;22.23;48.02;101144.78;5046287;28;20065;-68
2022/06/10 09:19:23;;;;;;;3.05;2.22;;;;;;;22.44;46.46;101140.28;5044623;28;20059;-67
2022/06/10 09:22:03;;;;;;;3.55;2.17;;;;;;;22.30;47.61;101144.16;5046895;28;20056;-68
2022/06/10 09:24:52;;;;;;;3.22;1.75;;;;;;;22.51;47.04;101141.47;5041826;28;20141;-68
2022/06/10 09:27:25;;;;;;;3.25;1.70;;;;;;;22.44;46.05;101143.00;5047812;28;20700;-68
2022/06/10 09:29:52;;;;;;;5.38;2.22;;;;;;;21.92;46.56;101133.81;5045134;28;20051;-68
2022/06/10 09:32:43;;;;;;;3.53;1.92;;;;;;;21.54;47.71;101146.91;5045259;28;20098;-68
2022/06/10 09:35:25;;;;;;;4.72;2.08;;;;;;;21.48;47.92;101142.00;5048438;28;20053;-68
2022/06/10 09:37:59;;;;;;;5.03;2.00;;;;;;;21.44;48.14;101138.69;5046136;28;20045;-69
2022/06/10 09:40:52;;;;;;;4.85;2.22;;;;;;;21.69;48.14;101137.56;5046377;28;20669;-67
2022/06/10 09:43:42;;;;;;;3.15;1.50;;;;;;;21.91;47.98;101148.28;5012212;28;20071;-66
2022/06/10 09:46:27;;;;;;;;;;;;;;;21.97;45.25;101144.25;5051150;28;20139;-67
2022/06/10 09:49:12;;;;;;;3.30;1.48;;;;;;;22.16;45.31;101135.50;5041263;28;20411;-67
2022/06/10 09:51:45;;;;;;;3.90;1.75;;;;;;;22.07;43.41;101141.66;5051246;28;20135;-66
2022/06/10 09:54:55;;;;;;;4.63;1.50;;;;;;;21.69;44.62;101132.19;5047542;28;20072;-68
2022/06/10 09:57:37;;;;;;;9.68;2.17;;;;;;;21.75;45.21;101146.97;5047884;28;20044;-67
2022/06/10 10:00:18;;;;;;;2.63;1.80;;;;;;;21.99;45.68;101135.09;5047924;28;20044;-68
2022/06/10 10:03:03;;;;;;;7.15;2.00;;;;;;;22.27;44.66;101138.16;5047922;28;20063;-66
2022/06/10 10:06:10;;;;;;;3.38;1.70;;;;;;;22.15;43.87;101123.88;5041858;28;20068;-67
2022/06/10 10:09:10;;;;;;;4.93;1.85;;;;;;;22.05;45.16;101131.00;5051206;28;20472;-68
2022/06/10 10:12:00;;;;;;;6.53;1.73;;;;;;;21.88;43.56;101129.66;5051341;28;20069;-66
2022/06/10 10:14:55;;;;;;;3.35;1.70;;;;;;;21.85;43.53;101129.09;5050681;28;20162;-67
2022/06/10 10:17:57;;;;;;;5.30;1.48;;;;;;;21.92;43.36;101120.34;5044099;28;20053;-67
2022/06/10 10:20:44;;;;;;;3.08;1.45;;;;;;;22.00;43.23;101128.72;5047085;28;20420;-66
2022/06/10 10:23:22;;;;;;;4.35;1.63;;;;;;;21.88;44.69;101118.88;5046159;28;20129;-66
2022/06/10 10:25:49;;;;;;;3.47;1.40;;;;;;;22.12;44.82;101117.88;5051547;28;20060;-67
2022/06/10 10:28:20;;;;;;;6.40;1.95;;;;;;;22.52;42.90;101123.44;5047101;28;20099;-67
2022/06/10 10:31:04;;;;;;;5.22;1.60;;;;;;;22.56;42.53;101114.94;5058463;28;20053;-67
2022/06/10 10:33:31;;;;;;;3.83;1.38;;;;;;;22.61;42.57;101115.41;5050878;28;20063;-68
2022/06/10 10:36:00;;;;;;;3.10;1.80;;;;;;;22.79;42.29;101109.44;5053284;28;20053;-68
2022/06/10 10:38:42;;;;;;;5.22;1.60;;;;;;;23.14;41.96;101101.78;5052798;28;20412;-67
2022/06/10 10:41:33;;;;;;;5.38;2.10;;;;;;;23.35;41.17;101108.00;5048352;28;20049;-67
2022/06/10 10:44:05;;;;;;;;;;;;;;;23.64;39.70;101112.66;5047014;28;20056;-66
2022/06/10 10:46:39;;;;;;;3.97;1.42;;;;;;;23.65;38.41;101099.00;5048058;28;19974;-67
2022/06/10 10:49:24;;;;;;;3.38;1.33;;;;;;;23.64;40.15;101108.13;5049061;28;20049;-66
2022/06/10 10:51:51;;;;;;;5.82;2.03;;;;;;;23.37;41.31;101100.63;5044527;28;20048;-67
2022/06/10 10:54:33;;;;;;;4.38;1.80;;;;;;;23.39;41.46;101093.22;5052057;28;20056;-68
2022/06/10 10:57:12;;;;;;;5.28;1.70;;;;;;;23.21;39.98;101078.66;5047563;28;20144;-66
2022/06/10 10:59:42;;;;;;;2.85;1.50;;;;;;;23.34;39.47;101097.31;5043532;28;20040;-67
2022/06/10 11:02:30;;;;;;;4.38;1.15;;;;;;;23.59;38.79;101101.44;5050498;28;20045;-67
2022/06/10 11:05:21;;;;;;;3.20;1.30;;;;;;;23.67;38.37;101093.47;5041771;28;20139;-67
2022/06/10 11:08:16;;;;;;;5.18;1.55;;;;;;;23.67;39.74;101096.16;5023993;28;20041;-69
2022/06/10 11:10:58;;;;;;;5.53;1.67;;;;;;;23.31;39.71;101101.16;5049642;28;20441;-67
2022/06/10 11:13:34;;;;;;;6.53;1.70;;;;;;;22.83;40.12;101082.03;5057126;28;20067;-66
2022/06/10 11:16:35;;;;;;;5.03;1.50;;;;;;;22.58;41.03;101099.47;5044040;28;20586;-67
2022/06/10 11:19:14;;;;;;;3.58;1.50;;;;;;;22.77;41.58;101087.13;5044442;28;20045;-68
2022/06/10 11:22:02;;;;;;;2.03;1.20;;;;;;;23.11;40.91;101093.97;5049220;28;20045;-67
2022/06/10 11:24:41;;;;;;;4.28;1.40;;;;;;;23.22;39.53;101072.25;5045333;28;20102;-68
2022/06/10 11:27:31;;;;;;;4.45;1.60;;;;;;;23.38;39.17;101085.25;5046814;28;20076;-67
2022/06/10 11:30:13;;;;;;;4.50;1.70;;;;;;;23.65;38.69;101071.13;5054572;28;20381;-68
2022/06/10 11:32:48;;;;;;;3.17;1.30;;;;;;;24.13;38.36;101076.56;5053229;28;20045;-67
2022/06/10 11:35:26;;;;;;;4.68;1.30;;;;;;;24.36;37.75;101083.44;5046830;28;20064;-67
2022/06/10 11:37:58;;;;;;;2.60;1.60;;;;;;;23.97;38.47;101074.44;5050934;28;20127;-66
2022/06/10 11:40:28;;;;;;;3.65;1.45;;;;;;;23.89;37.92;101070.72;5025376;28;22964;-66
2022/06/10 11:42:55;;;;;;;;;;;;;;;24.06;38.13;101070.03;5046621;28;20060;-67
2022/06/10 11:45:30;;;;;;;3.25;1.58;;;;;;;23.78;38.79;101061.75;5050561;28;19921;-68
2022/06/10 11:48:16;;;;;;;3.28;1.42;;;;;;;23.72;38.99;101066.88;5044598;28;20119;-66
2022/06/10 11:50:48;;;;;;;5.20;1.92;;;;;;;23.81;39.47;101074.13;5046289;28;20044;-66
2022/06/10 11:53:33;;;;;;;4.07;1.50;;;;;;;23.59;39.01;101045.50;5044152;28;20070;-67
2022/06/10 12:01:46;;;;;;;4.03;1.50;;;;;;;24.06;38.37;101060.06;5048238;28;20447;-68
2022/06/10 12:04:40;;;;;;;4.68;1.40;;;;;;;24.23;38.67;101053.09;5042479;28;20111;-66
2022/06/10 12:07:16;;;;;;;2.55;1.50;;;;;;;24.57;38.24;101050.75;5029940;28;20045;-67
2022/06/10 12:09:47;;;;;;;2.22;1.40;;;;;;;24.51;38.12;101045.06;5047152;28;20550;-67
2022/06/10 12:12:19;;;;;;;5.25;1.83;;;;;;;24.42;38.02;101035.97;5046797;28;20045;-66
2022/06/10 12:14:55;;;;;;;6.47;1.65;;;;;;;24.13;37.79;101012.47;5042303;28;20452;-67